sensor_id;sensor_type;location;lat;lon;timestamp;pressure;altitude;pressure_sealevel;temperature;humidity
78825;BME280;68176;45.554;10.220;2023-04-06T00:00:52;100217.59;;;13.96;34.87
78825;BME280;68176;45.554;10.220;2023-04-06T00:03:22;100204.59;;;13.84;34.67
78825;BME280;68176;45.554;10.220;2023-04-06T00:05:52;100226.50;;;13.95;34.72
78825;BME280;68176;45.554;10.220;2023-04-06T00:08:22;100221.22;;;13.95;34.70
78825;BME280;68176;45.554;10.220;2023-04-06T00:10:55;100228.56;;;13.91;34.71
78825;BME280;68176;45.554;10.220;2023-04-06T00:13:22;100184.66;;;13.72;34.90
78825;BME280;68176;45.554;10.220;2023-04-06T00:15:52;100236.75;;;13.98;34.90
78825;BME280;68176;45.554;10.220;2023-04-06T00:18:22;100224.56;;;13.87;34.94
78825;BME280;68176;45.554;10.220;2023-04-06T00:20:52;100213.22;;;13.86;34.86
78825;BME280;68176;45.554;10.220;2023-04-06T00:23:22;100190.75;;;13.73;34.93
78825;BME280;68176;45.554;10.220;2023-04-06T00:25:52;100224.25;;;13.90;34.83
78825;BME280;68176;45.554;10.220;2023-04-06T00:28:22;100210.72;;;13.75;35.16
78825;BME280;68176;45.554;10.220;2023-04-06T00:30:52;100196.59;;;13.67;34.72
78825;BME280;68176;45.554;10.220;2023-04-06T00:33:23;100198.81;;;13.71;35.15
78825;BME280;68176;45.554;10.220;2023-04-06T00:35:52;100220.81;;;13.89;34.71
78825;BME280;68176;45.554;10.220;2023-04-06T00:38:22;100216.25;;;13.82;35.24
78825;BME280;68176;45.554;10.220;2023-04-06T00:40:52;100215.44;;;13.81;35.29
78825;BME280;68176;45.554;10.220;2023-04-06T00:43:22;100186.78;;;13.59;34.93
78825;BME280;68176;45.554;10.220;2023-04-06T00:45:52;100199.94;;;13.69;35.13
78825;BME280;68176;45.554;10.220;2023-04-06T00:48:22;100201.59;;;13.70;35.15
78825;BME280;68176;45.554;10.220;2023-04-06T00:50:52;100215.31;;;13.73;35.24
78825;BME280;68176;45.554;10.220;2023-04-06T00:53:22;100222.66;;;13.79;35.10
78825;BME280;68176;45.554;10.220;2023-04-06T00:55:52;100214.31;;;13.74;35.26
78825;BME280;68176;45.554;10.220;2023-04-06T00:58:23;100222.09;;;13.76;35.31
78825;BME280;68176;45.554;10.220;2023-04-06T01:00:52;100222.53;;;13.71;35.05
78825;BME280;68176;45.554;10.220;2023-04-06T01:03:22;100219.59;;;13.74;35.29
78825;BME280;68176;45.554;10.220;2023-04-06T01:05:56;100227.38;;;13.76;34.94
78825;BME280;68176;45.554;10.220;2023-04-06T01:08:24;100211.88;;;13.63;35.23
78825;BME280;68176;45.554;10.220;2023-04-06T01:10:52;100211.72;;;13.65;35.34
78825;BME280;68176;45.554;10.220;2023-04-06T01:13:22;100214.22;;;13.66;35.22
78825;BME280;68176;45.554;10.220;2023-04-06T01:15:55;100182.75;;;13.55;35.09
78825;BME280;68176;45.554;10.220;2023-04-06T01:18:26;100213.25;;;13.67;35.11
78825;BME280;68176;45.554;10.220;2023-04-06T01:20:53;100212.56;;;13.65;35.09
78825;BME280;68176;45.554;10.220;2023-04-06T01:23:23;100192.63;;;13.53;35.23
78825;BME280;68176;45.554;10.220;2023-04-06T01:25:52;100193.03;;;13.58;35.34
78825;BME280;68176;45.554;10.220;2023-04-06T01:28:22;100202.00;;;13.65;35.37
78825;BME280;68176;45.554;10.220;2023-04-06T01:30:52;100206.59;;;13.63;35.31
78825;BME280;68176;45.554;10.220;2023-04-06T01:33:22;100208.78;;;13.68;35.58
78825;BME280;68176;45.554;10.220;2023-04-06T01:35:52;100197.75;;;13.55;35.33
78825;BME280;68176;45.554;10.220;2023-04-06T01:38:22;100212.00;;;13.62;35.35
78825;BME280;68176;45.554;10.220;2023-04-06T01:40:53;100188.31;;;13.43;35.33
78825;BME280;68176;45.554;10.220;2023-04-06T01:43:22;100196.91;;;13.54;35.44
78825;BME280;68176;45.554;10.220;2023-04-06T01:45:52;100210.50;;;13.59;35.53
78825;BME280;68176;45.554;10.220;2023-04-06T01:48:25;100211.19;;;13.61;35.55
78825;BME280;68176;45.554;10.220;2023-04-06T01:50:53;100195.81;;;13.47;35.51
78825;BME280;68176;45.554;10.220;2023-04-06T01:53:22;100203.84;;;13.55;35.50
78825;BME280;68176;45.554;10.220;2023-04-06T01:55:52;100210.78;;;13.56;35.58
78825;BME280;68176;45.554;10.220;2023-04-06T01:58:23;100214.38;;;13.55;35.43
78825;BME280;68176;45.554;10.220;2023-04-06T02:00:52;100193.34;;;13.46;35.33
78825;BME280;68176;45.554;10.220;2023-04-06T02:03:22;100210.22;;;13.53;35.74
78825;BME280;68176;45.554;10.220;2023-04-06T02:05:52;100173.81;;;13.29;35.63
78825;BME280;68176;45.554;10.220;2023-04-06T02:08:22;100221.59;;;13.53;35.57
78825;BME280;68176;45.554;10.220;2023-04-06T02:10:52;100180.72;;;13.30;35.58
78825;BME280;68176;45.554;10.220;2023-04-06T02:13:22;100193.06;;;13.39;35.57
78825;BME280;68176;45.554;10.220;2023-04-06T02:15:53;100189.19;;;13.33;35.64
78825;BME280;68176;45.554;10.220;2023-04-06T02:18:22;100165.09;;;13.19;35.63
78825;BME280;68176;45.554;10.220;2023-04-06T02:20:53;100189.19;;;13.33;35.55
78825;BME280;68176;45.554;10.220;2023-04-06T02:23:22;100216.06;;;13.47;35.71
78825;BME280;68176;45.554;10.220;2023-04-06T02:25:53;100190.28;;;13.31;35.55
78825;BME280;68176;45.554;10.220;2023-04-06T02:28:22;100220.78;;;13.43;35.65
78825;BME280;68176;45.554;10.220;2023-04-06T02:30:53;100200.00;;;13.30;35.88
78825;BME280;68176;45.554;10.220;2023-04-06T02:33:23;100220.50;;;13.46;35.54
78825;BME280;68176;45.554;10.220;2023-04-06T02:35:53;100205.25;;;13.40;35.55
78825;BME280;68176;45.554;10.220;2023-04-06T02:38:22;100204.19;;;13.33;35.63
78825;BME280;68176;45.554;10.220;2023-04-06T02:40:53;100209.16;;;13.36;35.81
78825;BME280;68176;45.554;10.220;2023-04-06T02:43:23;100211.94;;;13.34;35.69
78825;BME280;68176;45.554;10.220;2023-04-06T02:45:53;100199.44;;;13.36;35.72
78825;BME280;68176;45.554;10.220;2023-04-06T02:48:23;100191.69;;;13.25;35.67
78825;BME280;68176;45.554;10.220;2023-04-06T02:50:53;100211.63;;;13.38;35.79
78825;BME280;68176;45.554;10.220;2023-04-06T02:53:23;100185.47;;;13.26;35.86
78825;BME280;68176;45.554;10.220;2023-04-06T02:55:56;100189.19;;;13.24;35.47
78825;BME280;68176;45.554;10.220;2023-04-06T02:58:26;100164.25;;;13.09;36.38
78825;BME280;68176;45.554;10.220;2023-04-06T03:00:53;100205.81;;;13.34;35.73
78825;BME280;68176;45.554;10.220;2023-04-06T03:03:23;100198.91;;;13.33;35.96
78825;BME280;68176;45.554;10.220;2023-04-06T03:05:53;100186.56;;;13.24;36.28
78825;BME280;68176;45.554;10.220;2023-04-06T03:08:23;100193.78;;;13.31;35.85
78825;BME280;68176;45.554;10.220;2023-04-06T03:10:59;100161.78;;;13.17;35.96
78825;BME280;68176;45.554;10.220;2023-04-06T03:13:24;100172.03;;;13.20;36.01
78825;BME280;68176;45.554;10.220;2023-04-06T03:15:53;100193.22;;;13.28;35.99
78825;BME280;68176;45.554;10.220;2023-04-06T03:18:25;100170.63;;;13.16;35.95
78825;BME280;68176;45.554;10.220;2023-04-06T03:20:53;100175.63;;;13.19;35.97
78825;BME280;68176;45.554;10.220;2023-04-06T03:23:23;100160.66;;;13.10;35.96
78825;BME280;68176;45.554;10.220;2023-04-06T03:25:53;100161.50;;;13.10;36.08
78825;BME280;68176;45.554;10.220;2023-04-06T03:28:23;100154.13;;;13.04;36.12
78825;BME280;68176;45.554;10.220;2023-04-06T03:30:53;100197.25;;;13.22;36.25
78825;BME280;68176;45.554;10.220;2023-04-06T03:33:23;100157.44;;;13.06;36.09
78825;BME280;68176;45.554;10.220;2023-04-06T03:35:53;100186.56;;;13.14;36.29
78825;BME280;68176;45.554;10.220;2023-04-06T03:38:23;100204.03;;;13.25;36.06
78825;BME280;68176;45.554;10.220;2023-04-06T03:40:53;100204.59;;;13.19;36.40
78825;BME280;68176;45.554;10.220;2023-04-06T03:43:23;100185.31;;;13.09;36.22
78825;BME280;68176;45.554;10.220;2023-04-06T03:45:53;100184.06;;;13.03;35.76
78825;BME280;68176;45.554;10.220;2023-04-06T03:48:23;100162.31;;;12.92;35.98
78825;BME280;68176;45.554;10.220;2023-04-06T03:50:53;100172.56;;;12.95;35.96
78825;BME280;68176;45.554;10.220;2023-04-06T03:53:23;100188.66;;;13.01;36.06
78825;BME280;68176;45.554;10.220;2023-04-06T03:55:53;100202.34;;;13.05;36.14
78825;BME280;68176;45.554;10.220;2023-04-06T03:58:23;100198.38;;;13.10;36.06
78825;BME280;68176;45.554;10.220;2023-04-06T04:00:53;100173.94;;;12.89;36.05
78825;BME280;68176;45.554;10.220;2023-04-06T04:03:23;100186.81;;;13.02;36.40
78825;BME280;68176;45.554;10.220;2023-04-06T04:05:54;100186.97;;;13.00;36.15
78825;BME280;68176;45.554;10.220;2023-04-06T04:08:26;100172.00;;;12.91;36.03
78825;BME280;68176;45.554;10.220;2023-04-06T04:10:53;100207.19;;;13.00;36.17
78825;BME280;68176;45.554;10.220;2023-04-06T04:13:23;100220.94;;;13.13;36.10
78825;BME280;68176;45.554;10.220;2023-04-06T04:15:53;100199.47;;;12.98;36.14
78825;BME280;68176;45.554;10.220;2023-04-06T04:18:23;100198.91;;;12.95;36.38
78825;BME280;68176;45.554;10.220;2023-04-06T04:20:53;100171.19;;;12.81;36.33
78825;BME280;68176;45.554;10.220;2023-04-06T04:23:23;100211.06;;;12.96;36.28
78825;BME280;68176;45.554;10.220;2023-04-06T04:25:53;100222.19;;;13.09;36.10
78825;BME280;68176;45.554;10.220;2023-04-06T04:28:23;100222.44;;;13.06;35.96
78825;BME280;68176;45.554;10.220;2023-04-06T04:30:53;100211.06;;;12.96;36.23
78825;BME280;68176;45.554;10.220;2023-04-06T04:33:23;100207.63;;;12.95;36.30
78825;BME280;68176;45.554;10.220;2023-04-06T04:35:56;100186.84;;;12.82;36.03
78825;BME280;68176;45.554;10.220;2023-04-06T04:38:23;100224.50;;;13.02;36.22
78825;BME280;68176;45.554;10.220;2023-04-06T04:40:53;100197.38;;;12.82;36.17
78825;BME280;68176;45.554;10.220;2023-04-06T04:43:23;100191.97;;;12.84;36.18
78825;BME280;68176;45.554;10.220;2023-04-06T04:45:53;100234.09;;;13.03;36.33
78825;BME280;68176;45.554;10.220;2023-04-06T04:48:23;100215.53;;;12.95;36.08
78825;BME280;68176;45.554;10.220;2023-04-06T04:50:53;100200.97;;;12.81;36.02
78825;BME280;68176;45.554;10.220;2023-04-06T04:53:23;100214.25;;;12.90;36.30
78825;BME280;68176;45.554;10.220;2023-04-06T04:55:56;100209.97;;;12.89;36.22
78825;BME280;68176;45.554;10.220;2023-04-06T04:58:23;100214.69;;;12.85;36.24
78825;BME280;68176;45.554;10.220;2023-04-06T05:00:53;100197.78;;;12.78;36.35
78825;BME280;68176;45.554;10.220;2023-04-06T05:03:25;100210.94;;;12.88;36.43
78825;BME280;68176;45.554;10.220;2023-04-06T05:05:58;100195.25;;;12.76;36.07
78825;BME280;68176;45.554;10.220;2023-04-06T05:08:24;100231.44;;;12.94;36.35
78825;BME280;68176;45.554;10.220;2023-04-06T05:10:53;100207.75;;;12.74;36.21
78825;BME280;68176;45.554;10.220;2023-04-06T05:13:26;100223.69;;;12.82;36.43
78825;BME280;68176;45.554;10.220;2023-04-06T05:15:53;100225.59;;;12.80;36.53
78825;BME280;68176;45.554;10.220;2023-04-06T05:18:23;100214.94;;;12.72;36.43
78825;BME280;68176;45.554;10.220;2023-04-06T05:20:53;100217.69;;;12.71;36.52
78825;BME280;68176;45.554;10.220;2023-04-06T05:23:24;100213.28;;;12.71;36.33
78825;BME280;68176;45.554;10.220;2023-04-06T05:25:53;100237.25;;;12.78;36.26
78825;BME280;68176;45.554;10.220;2023-04-06T05:28:23;100231.88;;;12.79;36.55
78825;BME280;68176;45.554;10.220;2023-04-06T05:30:57;100214.38;;;12.69;36.22
78825;BME280;68176;45.554;10.220;2023-04-06T05:33:24;100242.66;;;12.86;36.50
78825;BME280;68176;45.554;10.220;2023-04-06T05:35:54;100204.41;;;12.63;36.62
78825;BME280;68176;45.554;10.220;2023-04-06T05:38:23;100227.38;;;12.70;36.52
78825;BME280;68176;45.554;10.220;2023-04-06T05:40:54;100212.84;;;12.57;36.54
78825;BME280;68176;45.554;10.220;2023-04-06T05:43:24;100248.47;;;12.80;36.24
78825;BME280;68176;45.554;10.220;2023-04-06T05:45:53;100235.44;;;12.78;36.64
78825;BME280;68176;45.554;10.220;2023-04-06T05:48:24;100245.16;;;12.78;36.81
78825;BME280;68176;45.554;10.220;2023-04-06T05:50:54;100226.03;;;12.76;36.67
78825;BME280;68176;45.554;10.220;2023-04-06T05:53:26;100237.13;;;12.79;36.61
78825;BME280;68176;45.554;10.220;2023-04-06T05:55:54;100205.53;;;12.60;36.68
78825;BME280;68176;45.554;10.220;2023-04-06T05:58:23;100235.72;;;12.75;36.74
78825;BME280;68176;45.554;10.220;2023-04-06T06:01:00;100209.09;;;12.59;36.68
78825;BME280;68176;45.554;10.220;2023-04-06T06:03:26;100227.25;;;12.62;36.64
78825;BME280;68176;45.554;10.220;2023-04-06T06:05:59;100227.38;;;12.70;36.65
78825;BME280;68176;45.554;10.220;2023-04-06T06:08:25;100241.25;;;12.72;36.62
78825;BME280;68176;45.554;10.220;2023-04-06T06:13:30;100206.72;;;12.47;36.92
78825;BME280;68176;45.554;10.220;2023-04-06T06:15:55;100237.38;;;12.67;36.88
78825;BME280;68176;45.554;10.220;2023-04-06T06:18:24;100232.94;;;12.67;36.87
78825;BME280;68176;45.554;10.220;2023-04-06T06:21:01;100235.44;;;12.69;36.78
78825;BME280;68176;45.554;10.220;2023-04-06T06:23:27;100215.31;;;12.49;36.66
78825;BME280;68176;45.554;10.220;2023-04-06T06:26:01;100243.34;;;12.69;36.93
78825;BME280;68176;45.554;10.220;2023-04-06T06:28:27;100234.88;;;12.65;36.72
78825;BME280;68176;45.554;10.220;2023-04-06T06:30:54;100229.03;;;12.62;36.91
78825;BME280;68176;45.554;10.220;2023-04-06T06:33:24;100242.09;;;12.63;36.93
78825;BME280;68176;45.554;10.220;2023-04-06T06:35:57;100219.34;;;12.53;36.98
78825;BME280;68176;45.554;10.220;2023-04-06T06:38:24;100235.56;;;12.67;37.07
78825;BME280;68176;45.554;10.220;2023-04-06T06:40:54;100229.72;;;12.64;37.18
78825;BME280;68176;45.554;10.220;2023-04-06T06:43:24;100208.53;;;12.46;32.92
78825;BME280;68176;45.554;10.220;2023-04-06T06:45:54;100220.28;;;12.42;32.13
78825;BME280;68176;45.554;10.220;2023-04-06T06:48:24;100224.69;;;12.32;32.84
78825;BME280;68176;45.554;10.220;2023-04-06T06:50:54;100224.53;;;12.34;33.45
78825;BME280;68176;45.554;10.220;2023-04-06T06:53:24;100207.06;;;12.23;33.67
78825;BME280;68176;45.554;10.220;2023-04-06T06:55:54;100229.69;;;12.35;34.16
78825;BME280;68176;45.554;10.220;2023-04-06T06:58:24;100208.19;;;12.30;34.27
78825;BME280;68176;45.554;10.220;2023-04-06T07:00:58;100206.09;;;12.24;34.66
78825;BME280;68176;45.554;10.220;2023-04-06T07:03:24;100222.19;;;12.30;34.58
78825;BME280;68176;45.554;10.220;2023-04-06T07:05:55;100224.84;;;12.40;34.92
78825;BME280;68176;45.554;10.220;2023-04-06T07:08:24;100220.13;;;12.34;35.02
78825;BME280;68176;45.554;10.220;2023-04-06T07:10:54;100233.31;;;12.44;35.36
78825;BME280;68176;45.554;10.220;2023-04-06T07:13:24;100208.19;;;12.30;35.34
78825;BME280;68176;45.554;10.220;2023-04-06T07:15:54;100234.56;;;12.49;35.50
78825;BME280;68176;45.554;10.220;2023-04-06T07:18:24;100189.91;;;12.19;35.19
78825;BME280;68176;45.554;10.220;2023-04-06T07:20:54;100216.84;;;12.42;35.58
78825;BME280;68176;45.554;10.220;2023-04-06T07:23:24;100233.41;;;12.42;35.81
78825;BME280;68176;45.554;10.220;2023-04-06T07:25:54;100237.34;;;12.48;35.99
78825;BME280;68176;45.554;10.220;2023-04-06T07:28:24;100235.09;;;12.43;35.78
78825;BME280;68176;45.554;10.220;2023-04-06T07:30:54;100240.66;;;12.50;35.94
78825;BME280;68176;45.554;10.220;2023-04-06T07:33:24;100234.72;;;12.48;35.95
78825;BME280;68176;45.554;10.220;2023-04-06T07:35:54;100229.16;;;12.41;36.18
78825;BME280;68176;45.554;10.220;2023-04-06T07:38:24;100235.66;;;12.47;35.95
78825;BME280;68176;45.554;10.220;2023-04-06T07:40:54;100219.84;;;12.37;36.20
78825;BME280;68176;45.554;10.220;2023-04-06T07:43:24;100219.84;;;12.37;36.64
78825;BME280;68176;45.554;10.220;2023-04-06T07:45:54;100225.41;;;12.44;36.35
78825;BME280;68176;45.554;10.220;2023-04-06T07:48:24;100208.38;;;12.38;36.30
78825;BME280;68176;45.554;10.220;2023-04-06T07:51:01;100221.94;;;12.43;36.15
78825;BME280;68176;45.554;10.220;2023-04-06T07:53:27;100226.78;;;12.38;36.16
78825;BME280;68176;45.554;10.220;2023-04-06T07:55:54;100232.34;;;12.45;35.96
78825;BME280;68176;45.554;10.220;2023-04-06T07:58:24;100243.13;;;12.51;36.40
78825;BME280;68176;45.554;10.220;2023-04-06T08:00:54;100218.06;;;12.38;36.20
78825;BME280;68176;45.554;10.220;2023-04-06T08:03:24;100219.28;;;12.34;36.43
78825;BME280;68176;45.554;10.220;2023-04-06T08:05:54;100213.91;;;12.35;36.57
78825;BME280;68176;45.554;10.220;2023-04-06T08:08:24;100214.88;;;12.34;36.63
78825;BME280;68176;45.554;10.220;2023-04-06T08:10:54;100218.19;;;12.36;36.91
78825;BME280;68176;45.554;10.220;2023-04-06T08:13:24;100217.63;;;12.42;36.59
78825;BME280;68176;45.554;10.220;2023-04-06T08:15:54;100225.97;;;12.47;36.78
78825;BME280;68176;45.554;10.220;2023-04-06T08:18:24;100230.97;;;12.50;36.50
78825;BME280;68176;45.554;10.220;2023-04-06T08:20:54;100223.47;;;12.46;36.42
78825;BME280;68176;45.554;10.220;2023-04-06T08:23:24;100243.13;;;12.51;36.33
78825;BME280;68176;45.554;10.220;2023-04-06T08:25:54;100234.28;;;12.52;36.49
78825;BME280;68176;45.554;10.220;2023-04-06T08:28:27;100221.00;;;12.44;36.69
78825;BME280;68176;45.554;10.220;2023-04-06T08:30:54;100217.63;;;12.42;36.41
78825;BME280;68176;45.554;10.220;2023-04-06T08:33:24;100227.09;;;12.45;36.56
78825;BME280;68176;45.554;10.220;2023-04-06T08:35:54;100210.75;;;12.41;36.61
78825;BME280;68176;45.554;10.220;2023-04-06T08:38:24;100222.34;;;12.48;36.22
78825;BME280;68176;45.554;10.220;2023-04-06T08:40:54;100230.69;;;12.53;36.92
78825;BME280;68176;45.554;10.220;2023-04-06T08:43:27;100214.47;;;12.48;36.14
78825;BME280;68176;45.554;10.220;2023-04-06T08:45:54;100239.00;;;12.58;36.44
78825;BME280;68176;45.554;10.220;2023-04-06T08:48:25;100208.22;;;12.40;36.90
78825;BME280;68176;45.554;10.220;2023-04-06T08:50:55;100204.22;;;12.45;36.48
78825;BME280;68176;45.554;10.220;2023-04-06T08:53:24;100215.75;;;12.54;36.75
78825;BME280;68176;45.554;10.220;2023-04-06T08:55:56;100211.84;;;12.48;36.77
78825;BME280;68176;45.554;10.220;2023-04-06T08:58:26;100209.94;;;12.50;37.17
78825;BME280;68176;45.554;10.220;2023-04-06T09:00:55;100210.50;;;12.54;36.81
78825;BME280;68176;45.554;10.220;2023-04-06T09:03:26;100217.97;;;12.58;37.31
78825;BME280;68176;45.554;10.220;2023-04-06T09:05:55;100214.19;;;12.51;36.80
78825;BME280;68176;45.554;10.220;2023-04-06T09:08:25;100206.19;;;12.53;37.29
78825;BME280;68176;45.554;10.220;2023-04-06T09:10:55;100224.91;;;12.59;36.71
78825;BME280;68176;45.554;10.220;2023-04-06T09:13:24;100214.66;;;12.56;36.65
78825;BME280;68176;45.554;10.220;2023-04-06T09:16:05;100203.94;;;12.48;35.62
78825;BME280;68176;45.554;10.220;2023-04-06T09:18:33;100217.00;;;12.59;37.05
78825;BME280;68176;45.554;10.220;2023-04-06T09:21:02;100217.97;;;12.58;36.44
78825;BME280;68176;45.554;10.220;2023-04-06T09:23:28;100215.31;;;12.58;36.65
78825;BME280;68176;45.554;10.220;2023-04-06T09:26:10;100214.38;;;12.59;36.49
78825;BME280;68176;45.554;10.220;2023-04-06T09:28:49;100217.84;;;12.60;36.96
78825;BME280;68176;45.554;10.220;2023-04-06T09:31:20;100210.34;;;12.55;36.54
78825;BME280;68176;45.554;10.220;2023-04-06T09:33:46;100210.06;;;12.58;37.30
78825;BME280;68176;45.554;10.220;2023-04-06T09:36:12;100209.09;;;12.59;36.58
78825;BME280;68176;45.554;10.220;2023-04-06T09:38:57;100169.34;;;12.43;36.67
78825;BME280;68176;45.554;10.220;2023-04-06T09:41:29;100182.78;;;12.50;36.91
78825;BME280;68176;45.554;10.220;2023-04-06T09:44:08;100205.53;;;12.60;36.47
78825;BME280;68176;45.554;10.220;2023-04-06T09:46:39;100195.13;;;12.59;35.78
78825;BME280;68176;45.554;10.220;2023-04-06T09:49:06;100176.97;;;12.46;35.84
78825;BME280;68176;45.554;10.220;2023-04-06T09:51:37;100171.69;;;12.46;36.58
78825;BME280;68176;45.554;10.220;2023-04-06T09:54:07;100166.97;;;12.40;35.91
78825;BME280;68176;45.554;10.220;2023-04-06T09:59:55;100165.56;;;12.36;36.55
78825;BME280;68176;45.554;10.220;2023-04-06T10:07:41;100183.75;;;12.58;35.84
78825;BME280;68176;45.554;10.220;2023-04-06T10:10:08;100152.88;;;12.41;35.71
78825;BME280;68176;45.554;10.220;2023-04-06T10:12:37;100170.31;;;12.61;35.78
78825;BME280;68176;45.554;10.220;2023-04-06T10:15:06;100158.16;;;12.60;35.46
78825;BME280;68176;45.554;10.220;2023-04-06T10:17:35;100157.59;;;12.66;35.53
78825;BME280;68176;45.554;10.220;2023-04-06T10:20:09;100164.25;;;12.70;35.68
78825;BME280;68176;45.554;10.220;2023-04-06T10:25:31;100165.22;;;12.79;35.80
78825;BME280;68176;45.554;10.220;2023-04-06T10:28:08;100155.09;;;12.74;35.66
78825;BME280;68176;45.554;10.220;2023-04-06T10:30:35;100128.78;;;12.55;35.81
78825;BME280;68176;45.554;10.220;2023-04-06T10:33:17;100163.16;;;12.73;35.67
78825;BME280;68176;45.554;10.220;2023-04-06T10:35:44;100142.78;;;12.75;35.88
78825;BME280;68176;45.554;10.220;2023-04-06T10:38:09;100159.81;;;12.80;35.64
78825;BME280;68176;45.554;10.220;2023-04-06T10:40:38;100146.38;;;12.83;35.85
78825;BME280;68176;45.554;10.220;2023-04-06T10:43:12;100155.94;;;12.94;35.70
78825;BME280;68176;45.554;10.220;2023-04-06T10:45:39;100146.81;;;12.89;35.29
78825;BME280;68176;45.554;10.220;2023-04-06T10:48:15;100148.72;;;13.06;35.30
78825;BME280;68176;45.554;10.220;2023-04-06T10:50:43;100141.25;;;12.92;35.12
78825;BME280;68176;45.554;10.220;2023-04-06T10:53:09;100145.41;;;13.04;35.67
78825;BME280;68176;45.554;10.220;2023-04-06T10:55:40;100144.88;;;13.10;35.64
78825;BME280;68176;45.554;10.220;2023-04-06T10:58:07;100138.50;;;13.12;35.81
78825;BME280;68176;45.554;10.220;2023-04-06T11:00:44;100126.97;;;13.23;35.70
78825;BME280;68176;45.554;10.220;2023-04-06T11:03:10;100137.22;;;13.26;35.63
78825;BME280;68176;45.554;10.220;2023-04-06T11:05:37;100108.25;;;13.26;35.35
78825;BME280;68176;45.554;10.220;2023-04-06T11:08:07;100115.59;;;13.32;35.26
78825;BME280;68176;45.554;10.220;2023-04-06T11:10:37;100132.00;;;13.53;35.30
78825;BME280;68176;45.554;10.220;2023-04-06T11:13:07;100114.16;;;13.47;35.75
78825;BME280;68176;45.554;10.220;2023-04-06T11:15:37;100114.19;;;13.65;35.49
78825;BME280;68176;45.554;10.220;2023-04-06T11:18:07;100121.00;;;13.67;35.57
78825;BME280;68176;45.554;10.220;2023-04-06T11:20:37;100111.22;;;13.77;35.70
78825;BME280;68176;45.554;10.220;2023-04-06T11:23:07;100078.59;;;13.61;35.50
78825;BME280;68176;45.554;10.220;2023-04-06T11:25:37;100081.94;;;13.80;35.63
78825;BME280;68176;45.554;10.220;2023-04-06T11:28:07;100102.34;;;14.06;35.38
78825;BME280;68176;45.554;10.220;2023-04-06T11:30:38;100084.88;;;14.05;35.33
78825;BME280;68176;45.554;10.220;2023-04-06T11:33:07;100094.53;;;14.14;35.44
78825;BME280;68176;45.554;10.220;2023-04-06T11:35:37;100088.06;;;14.26;35.49
78825;BME280;68176;45.554;10.220;2023-04-06T11:38:07;100093.88;;;14.29;35.64
78825;BME280;68176;45.554;10.220;2023-04-06T11:40:37;100091.63;;;14.34;35.62
78825;BME280;68176;45.554;10.220;2023-04-06T11:43:11;100073.34;;;14.33;35.44
78825;BME280;68176;45.554;10.220;2023-04-06T11:45:41;100067.16;;;14.42;35.44
78825;BME280;68176;45.554;10.220;2023-04-06T11:48:20;100075.22;;;14.58;35.40
78825;BME280;68176;45.554;10.220;2023-04-06T11:50:47;100061.25;;;14.48;35.28
78825;BME280;68176;45.554;10.220;2023-04-06T11:53:13;100084.34;;;14.64;35.61
78825;BME280;68176;45.554;10.220;2023-04-06T11:55:41;100070.06;;;14.74;35.27
78825;BME280;68176;45.554;10.220;2023-04-06T11:58:11;100052.63;;;14.81;29.08
78825;BME280;68176;45.554;10.220;2023-04-06T12:00:41;100062.94;;;14.92;27.04
78825;BME280;68176;45.554;10.220;2023-04-06T12:03:11;100062.69;;;15.04;27.31
78825;BME280;68176;45.554;10.220;2023-04-06T12:05:41;100058.84;;;15.24;26.35
78825;BME280;68176;45.554;10.220;2023-04-06T12:08:11;100054.50;;;15.15;25.24
78825;BME280;68176;45.554;10.220;2023-04-06T12:10:41;100031.81;;;15.04;23.88
78825;BME280;68176;45.554;10.220;2023-04-06T12:13:11;100058.38;;;15.28;24.36
78825;BME280;68176;45.554;10.220;2023-04-06T12:15:41;100049.44;;;15.55;25.05
78825;BME280;68176;45.554;10.220;2023-04-06T12:18:11;100046.50;;;15.58;25.32
78825;BME280;68176;45.554;10.220;2023-04-06T12:20:41;100047.13;;;15.52;24.79
78825;BME280;68176;45.554;10.220;2023-04-06T12:23:11;100037.91;;;15.64;24.97
78825;BME280;68176;45.554;10.220;2023-04-06T12:25:42;100027.84;;;15.60;24.67
78825;BME280;68176;45.554;10.220;2023-04-06T12:28:11;100019.91;;;15.60;23.17
78825;BME280;68176;45.554;10.220;2023-04-06T12:30:41;100027.06;;;15.83;23.32
78825;BME280;68176;45.554;10.220;2023-04-06T12:58:15;99992.22;;;15.38;24.84
78825;BME280;68176;45.554;10.220;2023-04-06T13:00:42;99998.59;;;15.61;23.82
78825;BME280;68176;45.554;10.220;2023-04-06T13:03:09;99991.88;;;15.83;23.65
78825;BME280;68176;45.554;10.220;2023-04-06T13:05:46;99983.81;;;16.09;23.42
78825;BME280;68176;45.554;10.220;2023-04-06T13:08:13;99983.16;;;16.39;23.30
78825;BME280;68176;45.554;10.220;2023-04-06T13:10:50;99983.16;;;16.71;22.57
78825;BME280;68176;45.554;10.220;2023-04-06T13:13:23;99979.19;;;16.27;21.35
78825;BME280;68176;45.554;10.220;2023-04-06T13:15:49;99987.31;;;16.25;20.45
78825;BME280;68176;45.554;10.220;2023-04-06T13:18:15;99971.09;;;16.44;21.32
78825;BME280;68176;45.554;10.220;2023-04-06T13:20:43;99984.13;;;16.94;21.62
78825;BME280;68176;45.554;10.220;2023-04-06T13:23:13;99974.63;;;17.16;21.25
78825;BME280;68176;45.554;10.220;2023-04-06T13:25:43;99975.63;;;17.54;20.96
78825;BME280;68176;45.554;10.220;2023-04-06T13:28:13;99986.06;;;17.17;19.72
78825;BME280;68176;45.554;10.220;2023-04-06T13:30:48;99932.34;;;16.68;19.59
78825;BME280;68176;45.554;10.220;2023-04-06T13:33:13;99976.28;;;17.09;20.18